Weather at Plzeň-Líně Airport

Public forecast

Using degrees Celsius for public forecast. Weather courtesy of forecast.io.

Current aviation weather report (METAR) for Plzeň-Líně Airport

Retrieved 2021/06/19 14:00 UTC (44 minutes ago):

LKLN 191400Z AUTO VRB04KT 9999 FEW094 33/15 Q1014

Closest aviation forecast (TAF) to Plzeň-Líně Airport

Closest forecast is Karlovy Vary International Airport, 34.6 nm (64.1 km) NNW. Retrieved 2021/06/19 12:15 UTC (2 hours ago):

TAF LKKV 191100Z 1912/2018 28005KT 9999 SCT045CB TEMPO 1912/1919 8000 SHRA SCT045TCU PROB40 TEMPO 1912/1918 29012KT 4000 TSRA SCT030CB TEMPO 2013/2018 8000 TSRA BKN050CB